CheckWX is a tool to help pilots better visualize weather data.  It is not intended as a substitute for an official pre-flight weather briefing.

20:31:17 UTC

KFRG METAR
Republic Airport
Farmingdale, New York, USA
Current

26 mins ago

KFRG 182005Z 31012G18KT 10SM FEW025 BKN041 OVC055 04/01 A2988 RMK AO2 T00440006
Observed
Feb-18 @ 20:05 UTC
Wind
  • 310° at 12 KTS
  • Gusting to 18 KTS
Visibility
10 SM
Flight Rules
VFR
Cloud Levels
  • Few at 2,500' AGL
  • Broken at 4,100' AGL
  • Overcast at 5,500' AGL
Temperature
C / 39°F
Dewpoint
C / 34°F
Humidity
81%
Altimeter
29.88" Hg
Pressure
1011.82 hPa
Previous

38 mins ago

KFRG 181953Z 31008G20KT 10SM FEW020 BKN027 OVC035 04/01 A2987 RMK AO2 RAB35E46 SLP115 P0000 T00390006
Observed
Feb-18 @ 19:53 UTC
Wind
  • 310° at 8 KTS
  • Gusting to 20 KTS
Visibility
10 SM
Flight Rules
MVFR
Cloud Levels
  • Few at 2,000' AGL
  • Broken at 2,700' AGL
  • Overcast at 3,500' AGL
Temperature
C / 39°F
Dewpoint
C / 34°F
Humidity
81%
Altimeter
29.87" Hg
Pressure
1011.5 hPa
Current Rain
0.01"
Previous

2 hours ago

KFRG 181853Z 29010KT 10SM SCT029 OVC038 04/00 A2985 RMK AO2 SLP108 T00440000
Observed
Feb-18 @ 18:53 UTC
Wind
  • 290° at 10 KTS
Visibility
10 SM
Flight Rules
VFR
Cloud Levels
  • Scattered at 2,900' AGL
  • Overcast at 3,800' AGL
Temperature
C / 39°F
Dewpoint
C / 32°F
Humidity
75%
Altimeter
29.85" Hg
Pressure
1010.8 hPa